createdAt,value
2023-04-22T00:01:21.416Z,11.40
2023-04-22T00:03:48.306Z,11.30
2023-04-22T00:06:15.146Z,11.30
2023-04-22T00:08:43.208Z,11.30
2023-04-22T00:11:09.975Z,11.30
2023-04-22T00:13:36.840Z,11.30
2023-04-22T00:16:03.759Z,11.30
2023-04-22T00:18:30.563Z,11.30
2023-04-22T00:20:57.289Z,11.20
2023-04-22T00:23:24.045Z,11.20
2023-04-22T00:25:52.110Z,11.20
2023-04-22T00:28:18.868Z,11.20
2023-04-22T00:30:45.642Z,11.10
2023-04-22T00:33:12.404Z,11.20
2023-04-22T00:35:39.145Z,11.10
2023-04-22T00:38:05.869Z,11.20
2023-04-22T00:40:32.611Z,11.10
2023-04-22T00:43:01.542Z,11.10
2023-04-22T00:45:30.228Z,11.00
2023-04-22T00:47:57.174Z,11.00
2023-04-22T00:50:24.128Z,11.00
2023-04-22T00:52:50.898Z,11.00
2023-04-22T00:55:17.793Z,11.10
2023-04-22T00:57:44.742Z,11.10
2023-04-22T01:00:13.970Z,11.00
2023-04-22T01:02:41.035Z,11.00
2023-04-22T01:05:08.365Z,11.00
2023-04-22T01:07:35.482Z,11.10
2023-04-22T01:10:02.477Z,11.00
2023-04-22T01:12:29.194Z,11.00
2023-04-22T01:14:56.167Z,11.00
2023-04-22T01:17:24.292Z,10.90
2023-04-22T01:19:51.140Z,10.90
2023-04-22T01:22:18.683Z,11.00
2023-04-22T01:24:46.810Z,10.90
2023-04-22T01:27:13.900Z,10.80
2023-04-22T01:29:40.943Z,10.80
2023-04-22T01:32:08.015Z,10.80
2023-04-22T01:34:34.802Z,10.80
2023-04-22T01:37:01.570Z,10.70
2023-04-22T01:39:29.325Z,10.80
2023-04-22T01:41:57.798Z,10.80
2023-04-22T01:44:25.254Z,10.70
2023-04-22T01:46:51.945Z,10.70
2023-04-22T01:49:18.665Z,10.80
2023-04-22T01:51:45.336Z,10.60
2023-04-22T01:54:12.296Z,10.40
2023-04-22T01:56:38.980Z,10.60
2023-04-22T01:59:07.045Z,10.60
2023-04-22T02:01:33.886Z,10.60
2023-04-22T02:04:00.665Z,10.60
2023-04-22T02:06:27.484Z,10.50
2023-04-22T02:08:54.177Z,10.50
2023-04-22T02:11:21.024Z,10.50
2023-04-22T02:13:47.730Z,10.40
2023-04-22T02:16:15.823Z,10.50
2023-04-22T02:18:42.585Z,10.50
2023-04-22T02:21:09.367Z,10.50
2023-04-22T02:23:36.791Z,10.50
2023-04-22T02:26:03.627Z,10.50
2023-04-22T02:28:30.514Z,10.60
2023-04-22T02:30:57.294Z,10.40
2023-04-22T02:33:25.434Z,10.40
2023-04-22T02:35:52.119Z,10.50
2023-04-22T02:38:19.154Z,10.50
2023-04-22T02:40:45.910Z,10.50
2023-04-22T02:43:12.833Z,10.40
2023-04-22T02:45:39.521Z,10.50
2023-04-22T02:48:06.413Z,10.40
2023-04-22T02:50:34.532Z,10.50
2023-04-22T02:53:01.232Z,10.40
2023-04-22T02:55:27.945Z,10.40
2023-04-22T02:57:54.762Z,10.40
2023-04-22T03:00:21.507Z,10.40
2023-04-22T03:02:48.343Z,10.40
2023-04-22T03:05:15.278Z,10.40
2023-04-22T03:07:43.363Z,10.30
2023-04-22T03:10:10.325Z,10.40
2023-04-22T03:12:37.045Z,10.40
2023-04-22T03:15:04.266Z,10.40
2023-04-22T03:17:31.016Z,10.30
2023-04-22T03:19:57.734Z,10.30
2023-04-22T03:22:24.493Z,10.30
2023-04-22T03:24:52.528Z,10.30
2023-04-22T03:27:19.233Z,10.30
2023-04-22T03:29:45.960Z,10.30
2023-04-22T03:32:12.671Z,10.20
2023-04-22T03:34:39.504Z,10.10
2023-04-22T03:37:06.227Z,10.10
2023-04-22T03:39:32.933Z,10.20
2023-04-22T03:42:02.111Z,10.10
2023-04-22T03:44:28.823Z,10.20
2023-04-22T03:46:55.504Z,10.10
2023-04-22T03:49:22.775Z,10.10
2023-04-22T03:51:49.453Z,10.10
2023-04-22T03:54:16.177Z,10.10
2023-04-22T03:56:42.910Z,10.10
2023-04-22T03:59:10.940Z,9.90
2023-04-22T04:01:37.650Z,9.90
2023-04-22T04:04:04.661Z,10.00
2023-04-22T04:06:31.591Z,10.00
2023-04-22T04:08:58.284Z,10.00
2023-04-22T04:11:25.168Z,10.00
2023-04-22T04:13:51.842Z,10.00
2023-04-22T04:16:19.974Z,9.90
2023-04-22T04:18:49.767Z,9.90
2023-04-22T04:21:16.493Z,9.90
2023-04-22T04:23:43.215Z,9.90
2023-04-22T04:26:09.950Z,9.90
2023-04-22T04:28:36.656Z,9.90
2023-04-22T04:31:03.382Z,9.80
2023-04-22T04:33:31.594Z,9.90
2023-04-22T04:35:59.052Z,9.90
2023-04-22T04:38:25.858Z,9.90
2023-04-22T04:40:53.183Z,9.90
2023-04-22T04:43:20.019Z,9.80
2023-04-22T04:45:48.756Z,9.80
2023-04-22T04:48:16.304Z,9.70
2023-04-22T04:50:44.623Z,9.70
2023-04-22T04:53:12.067Z,9.70
2023-04-22T04:55:38.934Z,9.80
2023-04-22T04:58:05.770Z,9.80
2023-04-22T05:00:32.480Z,9.70
2023-04-22T05:02:59.305Z,9.80
2023-04-22T05:05:26.135Z,9.80
2023-04-22T05:07:54.190Z,9.80
2023-04-22T05:10:21.080Z,9.80
2023-04-22T05:12:47.820Z,9.70
2023-04-22T05:15:14.810Z,9.70
2023-04-22T05:17:41.581Z,9.70
2023-04-22T05:20:09.051Z,9.70
2023-04-22T05:22:35.998Z,9.80
2023-04-22T05:25:04.958Z,9.80
2023-04-22T05:27:31.836Z,9.90
2023-04-22T05:29:58.581Z,9.90
2023-04-22T05:32:25.342Z,9.90
2023-04-22T05:34:52.139Z,9.80
2023-04-22T05:37:18.839Z,9.80
2023-04-22T05:39:45.552Z,9.80
2023-04-22T05:42:13.598Z,9.80
2023-04-22T05:44:40.262Z,9.90
2023-04-22T05:47:06.977Z,9.90
2023-04-22T05:49:33.711Z,10.00
2023-04-22T05:52:00.435Z,10.00
2023-04-22T05:54:28.060Z,10.00
2023-04-22T05:56:54.966Z,10.10
2023-04-22T05:59:23.084Z,10.20
2023-04-22T06:01:49.751Z,10.20
2023-04-22T06:04:16.816Z,10.20
2023-04-22T06:06:43.706Z,10.30
2023-04-22T06:09:10.392Z,10.30
2023-04-22T06:11:37.127Z,10.40
2023-04-22T06:14:03.802Z,10.40
2023-04-22T06:16:31.877Z,10.50
2023-04-22T06:18:58.616Z,10.50
2023-04-22T06:21:25.359Z,10.60
2023-04-22T06:23:52.038Z,10.60
2023-04-22T06:26:18.759Z,10.70
2023-04-22T06:28:45.489Z,10.70
2023-04-22T06:31:12.248Z,10.70
2023-04-22T06:33:40.323Z,10.80
2023-04-22T06:36:07.448Z,10.80
2023-04-22T06:38:34.183Z,10.80
2023-04-22T06:41:00.888Z,10.90
2023-04-22T06:43:27.597Z,10.90
2023-04-22T06:45:54.322Z,10.90
2023-04-22T06:48:21.048Z,11.00
2023-04-22T06:50:49.093Z,11.00
2023-04-22T06:53:15.828Z,11.00
2023-04-22T06:55:42.604Z,11.10
2023-04-22T06:58:09.355Z,11.10
2023-04-22T07:00:36.047Z,11.10
2023-04-22T07:03:02.942Z,11.20
2023-04-22T07:05:29.942Z,11.20
2023-04-22T07:07:57.987Z,11.20
2023-04-22T07:10:24.795Z,11.20
2023-04-22T07:12:51.489Z,11.30
2023-04-22T07:15:18.392Z,11.30
2023-04-22T07:17:45.143Z,11.30
2023-04-22T07:20:12.054Z,11.40
2023-04-22T07:22:38.758Z,11.50
2023-04-22T07:25:07.284Z,11.40
2023-04-22T07:27:35.883Z,11.50
2023-04-22T07:30:04.361Z,11.50
2023-04-22T07:32:31.115Z,11.50
2023-04-22T07:34:57.822Z,11.60
2023-04-22T07:37:24.536Z,11.60
2023-04-22T07:39:51.316Z,11.60
2023-04-22T07:42:19.388Z,11.70
2023-04-22T07:44:46.110Z,11.70
2023-04-22T07:47:12.795Z,11.70
2023-04-22T07:49:39.694Z,11.70
2023-04-22T07:52:06.630Z,11.80
2023-04-22T07:54:33.335Z,11.80
2023-04-22T07:57:00.040Z,11.80
2023-04-22T07:59:28.131Z,11.90
2023-04-22T08:01:54.914Z,11.90
2023-04-22T08:04:23.867Z,11.90
2023-04-22T08:06:50.823Z,12.00
2023-04-22T08:09:17.691Z,12.00
2023-04-22T08:11:44.423Z,12.00
2023-04-22T08:14:11.202Z,12.00
2023-04-22T08:16:40.025Z,12.00
2023-04-22T08:19:06.750Z,12.10
2023-04-22T08:21:33.499Z,12.10
2023-04-22T08:24:00.225Z,12.10
2023-04-22T08:26:26.936Z,12.10
2023-04-22T08:28:53.739Z,12.20
2023-04-22T08:31:20.504Z,12.20
2023-04-22T08:33:48.605Z,12.20
2023-04-22T08:36:15.341Z,12.30
2023-04-22T08:38:42.084Z,12.30
2023-04-22T08:41:09.642Z,12.30
2023-04-22T08:43:36.698Z,12.30
2023-04-22T08:46:03.593Z,12.40
2023-04-22T08:48:30.593Z,12.40
2023-04-22T08:50:58.918Z,12.40
2023-04-22T08:53:25.754Z,12.40
2023-04-22T08:55:55.495Z,12.50
2023-04-22T08:58:23.157Z,12.50
2023-04-22T09:00:50.334Z,12.50
2023-04-22T09:03:18.477Z,12.50
2023-04-22T09:05:46.328Z,12.50
2023-04-22T09:08:14.666Z,12.60
2023-04-22T09:10:41.378Z,12.60
2023-04-22T09:13:08.444Z,12.60
2023-04-22T09:15:35.160Z,12.70
2023-04-22T09:18:02.693Z,12.70
2023-04-22T09:20:30.387Z,12.70
2023-04-22T09:23:01.759Z,12.70
2023-04-22T09:25:29.988Z,12.80
2023-04-22T09:27:59.102Z,12.80
2023-04-22T09:30:27.691Z,12.80
2023-04-22T09:32:55.720Z,12.80
2023-04-22T09:35:27.552Z,12.90
2023-04-22T09:37:54.464Z,12.90
2023-04-22T09:40:21.440Z,12.90
2023-04-22T09:42:50.700Z,12.90
2023-04-22T09:45:27.223Z,13.00
2023-04-22T09:47:55.197Z,13.00
2023-04-22T09:50:24.040Z,13.00
2023-04-22T09:52:54.923Z,13.10
2023-04-22T09:55:22.331Z,13.10
2023-04-22T09:57:53.803Z,13.10
2023-04-22T10:00:21.623Z,13.10
2023-04-22T10:02:48.453Z,13.20
2023-04-22T10:05:15.378Z,13.20
2023-04-22T10:07:42.545Z,13.20
2023-04-22T10:10:09.891Z,13.30
2023-04-22T10:12:36.945Z,13.30
2023-04-22T10:15:06.122Z,13.30
2023-04-22T10:17:37.075Z,13.40
2023-04-22T10:20:09.659Z,13.40
2023-04-22T10:22:36.713Z,13.40
2023-04-22T10:25:03.829Z,13.50
2023-04-22T10:27:31.236Z,13.50
2023-04-22T10:29:57.951Z,13.50
2023-04-22T10:32:27.061Z,13.60
2023-04-22T10:35:12.840Z,13.60
2023-04-22T10:37:42.625Z,13.70
2023-04-22T10:40:11.482Z,13.70
2023-04-22T10:42:40.702Z,13.70
2023-04-22T10:45:11.629Z,13.80
2023-04-22T10:47:40.015Z,13.80
2023-04-22T10:50:12.347Z,13.80
2023-04-22T10:52:39.253Z,13.80
2023-04-22T10:55:06.240Z,13.90
2023-04-22T10:57:36.828Z,13.90
2023-04-22T11:00:23.130Z,13.90
2023-04-22T11:02:54.407Z,14.00
2023-04-22T11:05:25.856Z,14.00
2023-04-22T11:07:54.812Z,14.00
2023-04-22T11:10:34.335Z,14.00
2023-04-22T11:13:02.101Z,14.10
2023-04-22T11:15:30.608Z,14.10
2023-04-22T11:17:59.261Z,14.20
2023-04-22T11:20:26.027Z,14.20
2023-04-22T11:22:54.585Z,14.20
2023-04-22T11:25:21.794Z,14.20
2023-04-22T11:27:48.647Z,14.30
2023-04-22T11:30:17.093Z,14.30
2023-04-22T11:32:45.307Z,14.30
2023-04-22T11:35:14.824Z,14.30
2023-04-22T11:37:42.741Z,14.40
2023-04-22T11:40:28.121Z,14.40
2023-04-22T11:42:57.223Z,14.40
2023-04-22T11:45:25.254Z,14.40
2023-04-22T11:47:52.907Z,14.40
2023-04-22T11:50:24.258Z,14.50
2023-04-22T11:52:52.575Z,14.50
2023-04-22T11:55:22.331Z,14.50
2023-04-22T11:57:56.623Z,14.50
2023-04-22T12:00:24.526Z,14.60
2023-04-22T12:02:59.541Z,14.60
2023-04-22T12:05:38.834Z,14.60
2023-04-22T12:08:10.309Z,14.60
2023-04-22T12:10:42.392Z,14.60
2023-04-22T12:13:09.727Z,14.70
2023-04-22T12:15:41.594Z,14.70
2023-04-22T12:18:08.527Z,14.70
2023-04-22T12:20:37.976Z,14.80
2023-04-22T12:23:04.733Z,14.80
2023-04-22T12:25:31.473Z,14.80
2023-04-22T12:27:58.167Z,14.80
2023-04-22T12:30:24.918Z,14.90
2023-04-22T12:32:52.262Z,14.90
2023-04-22T12:35:19.361Z,14.90
2023-04-22T12:37:47.430Z,14.90
2023-04-22T12:40:14.228Z,14.90
2023-04-22T12:42:41.015Z,14.90
2023-04-22T12:45:08.831Z,15.00
2023-04-22T12:47:35.933Z,15.00
2023-04-22T12:50:02.784Z,15.00
2023-04-22T12:52:29.523Z,15.00
2023-04-22T12:54:57.552Z,15.00
2023-04-22T12:57:24.259Z,15.10
2023-04-22T12:59:50.990Z,15.10
2023-04-22T13:02:17.854Z,15.10
2023-04-22T13:04:44.719Z,15.10
2023-04-22T13:07:11.548Z,15.10
2023-04-22T13:09:38.557Z,15.10
2023-04-22T13:12:06.980Z,15.10
2023-04-22T13:14:33.657Z,15.20
2023-04-22T13:17:00.392Z,15.20
2023-04-22T13:19:27.100Z,15.20
2023-04-22T13:21:53.811Z,15.20
2023-04-22T13:24:20.498Z,15.20
2023-04-22T13:26:47.316Z,15.30
2023-04-22T13:29:15.397Z,15.30
2023-04-22T13:31:42.853Z,15.30
2023-04-22T13:34:10.612Z,15.30
2023-04-22T13:36:37.406Z,15.30
2023-04-22T13:39:05.048Z,15.30
2023-04-22T13:41:31.744Z,15.30
2023-04-22T13:43:58.462Z,15.40
2023-04-22T13:46:26.694Z,15.40
2023-04-22T13:48:53.721Z,15.40
2023-04-22T13:51:20.423Z,15.40
2023-04-22T13:53:47.139Z,15.50
2023-04-22T13:56:13.969Z,15.50
2023-04-22T13:58:41.028Z,15.50
2023-04-22T14:01:07.878Z,15.50
2023-04-22T14:03:36.331Z,15.50
2023-04-22T14:06:03.729Z,15.60
2023-04-22T14:08:30.544Z,15.60
2023-04-22T14:10:57.303Z,15.60
2023-04-22T14:13:24.005Z,15.60
2023-04-22T14:15:50.731Z,15.70
2023-04-22T14:18:17.461Z,15.70
2023-04-22T14:20:45.521Z,15.70
2023-04-22T14:23:12.236Z,15.70
2023-04-22T14:25:39.001Z,15.70
2023-04-22T14:28:05.796Z,15.80
2023-04-22T14:30:32.672Z,15.80
2023-04-22T14:32:59.440Z,15.80
2023-04-22T14:35:26.232Z,15.80
2023-04-22T14:37:54.333Z,15.90
2023-04-22T14:40:21.201Z,15.90
2023-04-22T14:42:47.944Z,15.90
2023-04-22T14:45:14.728Z,15.90
2023-04-22T14:47:41.521Z,16.00
2023-04-22T14:50:08.695Z,16.00
2023-04-22T14:52:35.449Z,16.00
2023-04-22T14:55:15.527Z,16.10
2023-04-22T14:57:50.135Z,16.10
2023-04-22T15:00:17.126Z,16.10
2023-04-22T15:02:44.596Z,16.10
2023-04-22T15:05:11.563Z,16.20
2023-04-22T15:07:38.285Z,16.20
2023-04-22T15:10:07.582Z,16.20
2023-04-22T15:12:34.304Z,16.20
2023-04-22T15:15:01.047Z,16.30
2023-04-22T15:17:27.841Z,16.30
2023-04-22T15:19:54.586Z,16.30
2023-04-22T15:22:21.312Z,16.30
2023-04-22T15:24:48.035Z,16.30
2023-04-22T15:27:16.134Z,16.40
2023-04-22T15:29:42.875Z,16.40
2023-04-22T15:32:09.662Z,16.40
2023-04-22T15:34:36.414Z,16.40
2023-04-22T15:37:03.168Z,16.40
2023-04-22T15:39:29.993Z,16.40
2023-04-22T15:41:57.014Z,16.40
2023-04-22T15:44:25.053Z,16.40
2023-04-22T15:46:52.452Z,16.50
2023-04-22T15:49:19.583Z,16.50
2023-04-22T15:51:46.280Z,16.50
2023-04-22T15:54:13.071Z,16.40
2023-04-22T15:56:39.829Z,16.50
2023-04-22T15:59:06.519Z,16.50
2023-04-22T16:01:34.700Z,16.40
2023-04-22T16:04:01.747Z,16.50
2023-04-22T16:06:28.602Z,16.50
2023-04-22T16:08:55.298Z,16.50
2023-04-22T16:11:22.012Z,16.50
2023-04-22T16:13:48.705Z,16.50
2023-04-22T16:16:15.935Z,16.50
2023-04-22T16:18:44.429Z,16.50
2023-04-22T16:21:11.304Z,16.50
2023-04-22T16:23:38.088Z,16.50
2023-04-22T16:26:05.037Z,16.50
2023-04-22T16:28:32.090Z,16.50
2023-04-22T16:30:59.004Z,16.50
2023-04-22T16:33:25.954Z,16.50
2023-04-22T16:35:54.026Z,16.50
2023-04-22T16:38:20.782Z,16.50
2023-04-22T16:40:47.485Z,16.50
2023-04-22T16:43:14.202Z,16.50
2023-04-22T16:45:41.325Z,16.50
2023-04-22T16:48:08.039Z,16.50
2023-04-22T16:50:34.770Z,16.50
2023-04-22T16:53:02.805Z,16.50
2023-04-22T16:55:29.475Z,16.50
2023-04-22T16:57:56.314Z,16.50
2023-04-22T17:00:23.236Z,16.50
2023-04-22T17:02:50.001Z,16.50
2023-04-22T17:05:16.950Z,16.50
2023-04-22T17:07:43.675Z,16.50
2023-04-22T17:10:11.838Z,16.50
2023-04-22T17:12:38.586Z,16.50
2023-04-22T17:15:06.531Z,16.50
2023-04-22T17:17:33.293Z,16.50
2023-04-22T17:20:00.119Z,16.60
2023-04-22T17:22:27.182Z,16.50
2023-04-22T17:24:54.082Z,16.60
2023-04-22T17:27:22.587Z,16.50
2023-04-22T17:29:49.276Z,16.50
2023-04-22T17:32:16.117Z,16.50
2023-04-22T17:34:43.107Z,16.50
2023-04-22T17:37:10.060Z,16.50
2023-04-22T17:39:36.897Z,16.50
2023-04-22T17:42:03.917Z,16.50
2023-04-22T17:44:32.031Z,16.50
2023-04-22T17:46:58.798Z,16.60
2023-04-22T17:49:25.570Z,16.50
2023-04-22T17:51:52.308Z,16.60
2023-04-22T17:54:19.053Z,16.50
2023-04-22T17:56:45.855Z,16.50
2023-04-22T17:59:12.560Z,16.50
2023-04-22T18:01:40.623Z,16.50
2023-04-22T18:04:07.510Z,16.50
2023-04-22T18:06:34.242Z,16.50
2023-04-22T18:09:00.923Z,16.50
2023-04-22T18:11:27.642Z,16.50
2023-04-22T18:13:54.540Z,16.50
2023-04-22T18:16:21.369Z,16.50
2023-04-22T18:18:49.487Z,16.50
2023-04-22T18:21:16.664Z,16.50
2023-04-22T18:23:43.585Z,16.50
2023-04-22T18:26:10.272Z,16.50
2023-04-22T18:28:37.386Z,16.50
2023-04-22T18:31:04.293Z,16.50
2023-04-22T18:33:31.046Z,16.50
2023-04-22T18:35:59.073Z,16.50
2023-04-22T18:38:25.904Z,16.50
2023-04-22T18:40:52.649Z,16.50
2023-04-22T18:43:19.430Z,16.60
2023-04-22T18:45:46.164Z,16.60
2023-04-22T18:48:12.985Z,16.50
2023-04-22T18:50:40.280Z,16.50
2023-04-22T18:53:08.342Z,16.50
2023-04-22T18:55:35.119Z,16.50
2023-04-22T18:58:01.964Z,16.50
2023-04-22T19:00:28.781Z,16.50
2023-04-22T19:02:55.766Z,16.50
2023-04-22T19:05:22.557Z,16.50
2023-04-22T19:07:49.334Z,16.50
2023-04-22T19:10:17.810Z,16.50
2023-04-22T19:12:44.555Z,16.50
2023-04-22T19:15:11.744Z,16.50
2023-04-22T19:17:38.573Z,16.50
2023-04-22T19:20:06.794Z,16.50
2023-04-22T19:22:33.503Z,16.50
2023-04-22T19:25:00.585Z,16.50
2023-04-22T19:27:28.822Z,16.50
2023-04-22T19:29:55.545Z,16.50
2023-04-22T19:32:22.366Z,16.40
2023-04-22T19:34:49.206Z,16.50
2023-04-22T19:37:16.021Z,16.40
2023-04-22T19:39:43.111Z,16.50
2023-04-22T19:42:10.037Z,16.50
2023-04-22T19:44:38.123Z,16.40
2023-04-22T19:47:05.028Z,16.40
2023-04-22T19:49:32.443Z,16.40
2023-04-22T19:52:01.488Z,16.40
2023-04-22T19:54:29.955Z,16.30
2023-04-22T19:56:57.164Z,16.40
2023-04-22T19:59:24.043Z,16.30
2023-04-22T20:01:52.608Z,16.30
2023-04-22T20:04:20.003Z,16.40
2023-04-22T20:06:46.986Z,16.40
2023-04-22T20:09:13.977Z,16.40
2023-04-22T20:11:41.349Z,16.30
2023-04-22T20:14:08.899Z,16.30
2023-04-22T20:16:36.266Z,16.30
2023-04-22T20:19:04.654Z,16.30
2023-04-22T20:21:34.176Z,16.30
2023-04-22T20:24:03.664Z,16.30
2023-04-22T20:26:30.822Z,16.20
2023-04-22T20:28:58.089Z,16.20
2023-04-22T20:31:25.071Z,16.20
2023-04-22T20:33:52.267Z,16.20
2023-04-22T20:36:20.593Z,16.20
2023-04-22T20:38:49.572Z,16.20
2023-04-22T20:41:17.127Z,16.20
2023-04-22T20:43:43.912Z,16.10
2023-04-22T20:46:10.688Z,16.10
2023-04-22T20:48:37.461Z,16.10
2023-04-22T20:51:04.312Z,16.10
2023-04-22T20:53:32.387Z,16.10
2023-04-22T20:55:59.109Z,16.10
2023-04-22T20:58:25.829Z,16.10
2023-04-22T21:00:52.595Z,16.10
2023-04-22T21:03:22.511Z,16.10
2023-04-22T21:05:49.952Z,16.00
2023-04-22T21:08:20.354Z,16.00
2023-04-22T21:10:49.603Z,16.00
2023-04-22T21:13:17.686Z,16.00
2023-04-22T21:15:50.084Z,16.00
2023-04-22T21:18:20.896Z,16.00
2023-04-22T21:20:51.652Z,16.00
2023-04-22T21:23:19.410Z,15.90
2023-04-22T21:25:48.557Z,15.90
2023-04-22T21:28:16.181Z,15.90
2023-04-22T21:30:43.705Z,15.90
2023-04-22T21:33:10.559Z,15.90
2023-04-22T21:35:37.342Z,15.90
2023-04-22T21:38:04.066Z,15.90
2023-04-22T21:40:30.762Z,15.80
2023-04-22T21:42:59.025Z,15.80
2023-04-22T21:45:25.882Z,15.70
2023-04-22T21:47:52.729Z,15.70
2023-04-22T21:50:20.848Z,15.70
2023-04-22T21:52:48.384Z,15.80
2023-04-22T21:55:15.154Z,15.70
2023-04-22T21:57:41.946Z,15.70
2023-04-22T22:00:11.166Z,15.70
2023-04-22T22:02:37.963Z,15.70
2023-04-22T22:05:05.141Z,15.70
2023-04-22T22:07:31.899Z,15.60
2023-04-22T22:09:58.605Z,15.60
2023-04-22T22:12:25.320Z,15.60
2023-04-22T22:14:52.074Z,15.60
2023-04-22T22:17:20.153Z,15.60
2023-04-22T22:19:46.858Z,15.50
2023-04-22T22:22:13.560Z,15.50
2023-04-22T22:24:40.428Z,15.30
2023-04-22T22:27:07.304Z,15.40
2023-04-22T22:29:34.037Z,15.40
2023-04-22T22:32:00.885Z,15.40
2023-04-22T22:34:29.134Z,15.40
2023-04-22T22:36:55.858Z,15.40
2023-04-22T22:39:22.566Z,15.40
2023-04-22T22:41:49.294Z,15.30
2023-04-22T22:44:16.016Z,15.30
2023-04-22T22:46:42.788Z,15.30
2023-04-22T22:49:10.085Z,15.40
2023-04-22T22:51:38.147Z,15.40
2023-04-22T22:54:05.307Z,15.30
2023-04-22T22:56:32.068Z,15.30
2023-04-22T22:58:58.766Z,15.30
2023-04-22T23:01:25.569Z,15.30
2023-04-22T23:03:52.557Z,15.30
2023-04-22T23:06:19.405Z,15.30
2023-04-22T23:08:47.763Z,15.30
2023-04-22T23:11:14.476Z,15.20
2023-04-22T23:13:41.175Z,15.20
2023-04-22T23:16:07.897Z,15.10
2023-04-22T23:18:36.376Z,15.20
2023-04-22T23:21:04.704Z,15.20
2023-04-22T23:23:32.550Z,15.20
2023-04-22T23:26:01.220Z,15.20
2023-04-22T23:28:28.595Z,15.20
2023-04-22T23:33:25.009Z,15.20
2023-04-22T23:35:52.829Z,15.20
2023-04-22T23:38:19.685Z,15.20
2023-04-22T23:40:46.387Z,15.10
2023-04-22T23:43:14.445Z,15.10
2023-04-22T23:45:41.296Z,15.10
2023-04-22T23:48:07.986Z,15.10
2023-04-22T23:50:34.931Z,15.10
2023-04-22T23:53:01.671Z,15.10
2023-04-22T23:55:29.317Z,15.10
2023-04-22T23:57:56.599Z,15.10
